createdAt,value
2023-01-31T00:01:40.853Z,31.88
2023-01-31T00:04:09.833Z,33.45
2023-01-31T00:06:45.080Z,33.58
2023-01-31T00:09:15.339Z,33.58
2023-01-31T00:11:41.992Z,30.98
2023-01-31T00:14:11.857Z,33.60
2023-01-31T00:16:39.147Z,32.25
2023-01-31T00:19:05.984Z,38.83
2023-01-31T00:21:37.394Z,36.55
2023-01-31T00:24:05.648Z,31.90
2023-01-31T00:26:37.364Z,31.17
2023-01-31T00:29:05.924Z,31.60
2023-01-31T00:31:36.290Z,33.65
2023-01-31T00:34:03.476Z,38.70
2023-01-31T00:36:34.996Z,35.30
2023-01-31T00:39:04.413Z,35.47
2023-01-31T00:41:31.561Z,36.53
2023-01-31T00:43:58.640Z,37.65
2023-01-31T00:46:26.137Z,38.80
2023-01-31T00:48:53.759Z,35.08
2023-01-31T00:51:21.116Z,39.13
2023-01-31T00:53:48.801Z,32.35
2023-01-31T00:56:19.521Z,40.33
2023-01-31T00:58:46.381Z,33.63
2023-01-31T01:01:15.436Z,38.60
2023-01-31T01:03:45.686Z,37.28
2023-01-31T01:06:14.233Z,32.85
2023-01-31T01:08:42.181Z,34.78
2023-01-31T01:11:19.777Z,31.88
2023-01-31T01:13:47.449Z,36.33
2023-01-31T01:16:17.254Z,32.88
2023-01-31T01:18:46.479Z,27.30
2023-01-31T01:21:16.978Z,39.95
2023-01-31T01:23:44.438Z,35.08
2023-01-31T01:26:15.772Z,30.02
2023-01-31T01:28:42.512Z,33.30
2023-01-31T01:31:11.387Z,35.45
2023-01-31T01:33:38.300Z,34.30
2023-01-31T01:36:07.312Z,28.58
2023-01-31T01:38:36.293Z,36.67
2023-01-31T01:41:04.990Z,34.92
2023-01-31T01:43:43.786Z,30.15
2023-01-31T01:46:17.395Z,37.92
2023-01-31T01:51:14.281Z,28.25
2023-01-31T01:53:44.070Z,33.03
2023-01-31T01:56:17.341Z,29.45
2023-01-31T01:59:03.189Z,27.92
2023-01-31T02:01:37.425Z,32.38
2023-01-31T02:04:09.563Z,30.05
2023-01-31T02:06:36.327Z,29.85
2023-01-31T02:09:07.849Z,26.42
2023-01-31T02:11:34.649Z,24.58
2023-01-31T02:14:07.316Z,32.60
2023-01-31T02:16:34.953Z,33.58
2023-01-31T02:19:07.141Z,28.63
2023-01-31T02:21:48.934Z,36.83
2023-01-31T02:24:37.070Z,35.20
2023-01-31T02:27:26.644Z,29.02
2023-01-31T02:30:41.408Z,36.17
2023-01-31T02:33:17.224Z,32.33
2023-01-31T02:36:19.491Z,31.42
2023-01-31T02:38:58.907Z,37.40
2023-01-31T02:41:53.988Z,36.35
2023-01-31T02:45:00.794Z,32.88
2023-01-31T02:47:35.202Z,28.55
2023-01-31T02:50:26.637Z,42.65
2023-01-31T02:52:56.786Z,28.63
2023-01-31T02:55:48.411Z,36.42
2023-01-31T02:58:17.689Z,30.30
2023-01-31T03:00:47.257Z,39.05
2023-01-31T03:03:24.435Z,34.15
2023-01-31T03:06:22.978Z,39.67
2023-01-31T03:09:22.574Z,32.22
2023-01-31T03:12:07.758Z,34.05
2023-01-31T03:15:02.081Z,29.67
2023-01-31T03:20:36.370Z,33.25
2023-01-31T03:23:14.530Z,36.40
2023-01-31T03:25:46.103Z,43.95
2023-01-31T03:28:19.918Z,36.90
2023-01-31T03:31:05.671Z,40.53
2023-01-31T03:33:41.070Z,30.77
2023-01-31T03:36:26.799Z,38.17
2023-01-31T03:39:11.312Z,42.03
2023-01-31T03:41:46.316Z,43.60
2023-01-31T03:44:41.024Z,31.25
2023-01-31T03:47:18.753Z,31.02
2023-01-31T03:49:48.570Z,36.42
2023-01-31T03:52:23.274Z,37.42
2023-01-31T03:54:58.551Z,38.08
2023-01-31T03:57:32.429Z,35.90
2023-01-31T04:00:07.882Z,37.15
2023-01-31T04:02:37.118Z,37.10
2023-01-31T04:05:16.827Z,32.60
2023-01-31T04:07:43.676Z,34.50
2023-01-31T04:10:19.503Z,33.75
2023-01-31T04:12:46.934Z,38.88
2023-01-31T04:15:14.463Z,31.98
2023-01-31T04:17:41.185Z,38.95
2023-01-31T04:20:10.002Z,37.65
2023-01-31T04:22:36.949Z,38.75
2023-01-31T04:25:04.308Z,42.38
2023-01-31T04:27:33.527Z,36.42
2023-01-31T04:30:00.220Z,30.88
2023-01-31T04:32:29.259Z,32.45
2023-01-31T04:34:55.951Z,32.92
2023-01-31T04:37:22.736Z,30.52
2023-01-31T04:39:50.032Z,40.15
2023-01-31T04:42:16.890Z,28.33
2023-01-31T04:44:43.523Z,35.00
2023-01-31T04:47:10.176Z,34.83
2023-01-31T04:49:36.796Z,29.80
2023-01-31T04:52:06.021Z,31.02
2023-01-31T04:54:33.009Z,35.50
2023-01-31T04:56:59.720Z,32.65
2023-01-31T04:59:26.507Z,33.72
2023-01-31T05:01:53.196Z,35.90
2023-01-31T05:04:23.639Z,39.22
2023-01-31T05:06:50.321Z,36.00
2023-01-31T05:09:17.924Z,29.23
2023-01-31T05:11:44.720Z,38.92
2023-01-31T05:14:11.376Z,35.10
2023-01-31T05:16:40.952Z,40.45
2023-01-31T05:19:07.751Z,35.78
2023-01-31T05:21:54.395Z,34.55
2023-01-31T05:24:22.321Z,30.15
2023-01-31T05:26:51.351Z,33.17
2023-01-31T05:29:18.769Z,32.55
2023-01-31T05:31:51.585Z,29.48
2023-01-31T05:34:18.228Z,31.80
2023-01-31T05:36:45.117Z,32.95
2023-01-31T05:39:11.696Z,27.70
2023-01-31T05:41:38.388Z,27.70
2023-01-31T05:44:05.316Z,34.72
2023-01-31T05:46:32.381Z,33.88
2023-01-31T05:48:59.079Z,38.03
2023-01-31T05:51:25.813Z,40.05
2023-01-31T05:53:52.462Z,30.27
2023-01-31T05:56:19.122Z,42.05
2023-01-31T05:58:50.338Z,30.33
2023-01-31T06:01:23.544Z,35.30
2023-01-31T06:03:50.333Z,36.90
2023-01-31T06:06:19.315Z,35.28
2023-01-31T06:08:46.036Z,38.90
2023-01-31T06:11:16.248Z,33.55
2023-01-31T06:13:46.322Z,29.55
2023-01-31T06:16:13.273Z,33.20
2023-01-31T06:18:42.213Z,30.15
2023-01-31T06:21:12.016Z,31.98
2023-01-31T06:23:39.000Z,26.85
2023-01-31T06:26:07.896Z,36.13
2023-01-31T06:28:36.347Z,32.10
2023-01-31T06:31:10.483Z,27.77
2023-01-31T06:33:45.999Z,32.33
2023-01-31T06:36:13.869Z,27.17
2023-01-31T06:38:40.879Z,31.13
2023-01-31T06:41:07.578Z,32.97
2023-01-31T06:43:34.206Z,39.83
2023-01-31T06:46:00.969Z,32.97
2023-01-31T06:48:27.760Z,28.00
2023-01-31T06:50:54.688Z,36.40
2023-01-31T06:53:21.442Z,32.17
2023-01-31T06:55:48.143Z,33.00
2023-01-31T06:58:20.687Z,24.45
2023-01-31T07:00:47.888Z,37.25
2023-01-31T07:03:14.549Z,27.90
2023-01-31T07:05:41.238Z,25.25
2023-01-31T07:08:12.442Z,25.23
2023-01-31T07:10:41.664Z,31.60
2023-01-31T07:13:12.216Z,25.33
2023-01-31T07:15:38.849Z,26.23
2023-01-31T07:18:06.278Z,29.45
2023-01-31T07:20:36.093Z,29.50
2023-01-31T07:23:02.698Z,31.15
2023-01-31T07:25:34.710Z,25.85
2023-01-31T07:28:04.410Z,31.35
2023-01-31T07:30:31.198Z,26.45
2023-01-31T07:32:57.878Z,25.17
2023-01-31T07:35:24.546Z,27.13
2023-01-31T07:37:54.759Z,27.15
2023-01-31T07:40:21.809Z,32.63
2023-01-31T07:42:49.056Z,28.55
2023-01-31T07:45:23.298Z,27.95
2023-01-31T07:47:51.300Z,32.22
2023-01-31T07:50:18.613Z,33.30
2023-01-31T07:52:45.344Z,35.50
2023-01-31T07:55:14.397Z,35.08
2023-01-31T07:57:43.152Z,35.13
2023-01-31T08:00:30.945Z,32.70
2023-01-31T08:03:16.470Z,34.47
2023-01-31T08:05:48.548Z,50.78
2023-01-31T08:08:15.254Z,34.67
2023-01-31T08:10:47.321Z,32.95
2023-01-31T08:13:14.202Z,42.42
2023-01-31T08:15:40.980Z,35.78
2023-01-31T08:18:07.620Z,42.30
2023-01-31T08:20:37.458Z,36.20
2023-01-31T08:23:04.333Z,39.85
2023-01-31T08:25:33.195Z,40.35
2023-01-31T08:28:02.863Z,32.17
2023-01-31T08:30:30.235Z,36.50
2023-01-31T08:32:57.234Z,34.67
2023-01-31T08:35:27.091Z,38.50
2023-01-31T08:38:00.850Z,32.22
2023-01-31T08:40:33.861Z,30.02
2023-01-31T08:43:01.097Z,26.50
2023-01-31T08:45:29.408Z,29.25
2023-01-31T08:48:00.133Z,28.55
2023-01-31T08:50:32.952Z,25.85
2023-01-31T08:53:06.980Z,25.23
2023-01-31T08:55:36.041Z,31.48
2023-01-31T08:58:02.926Z,23.88
2023-01-31T09:00:32.491Z,25.65
2023-01-31T09:03:00.681Z,27.95
2023-01-31T09:05:31.788Z,25.85
2023-01-31T09:08:01.956Z,26.88
2023-01-31T09:10:28.892Z,31.02
2023-01-31T09:12:55.593Z,24.60
2023-01-31T09:15:22.554Z,28.75
2023-01-31T09:17:49.504Z,21.20
2023-01-31T09:20:16.367Z,25.55
2023-01-31T09:22:47.454Z,27.55
2023-01-31T09:25:14.186Z,30.15
2023-01-31T09:27:43.499Z,31.13
2023-01-31T09:30:10.931Z,27.67
2023-01-31T09:32:41.345Z,27.48
2023-01-31T09:35:08.502Z,27.85
2023-01-31T09:37:35.318Z,25.02
2023-01-31T09:40:04.344Z,23.95
2023-01-31T09:42:38.637Z,32.22
2023-01-31T09:45:22.601Z,31.55
2023-01-31T09:50:27.472Z,33.58
2023-01-31T09:52:56.434Z,24.55
2023-01-31T09:55:51.183Z,24.20
2023-01-31T09:58:17.793Z,24.73
2023-01-31T10:00:57.067Z,25.13
2023-01-31T10:03:52.700Z,32.63
2023-01-31T10:06:30.508Z,23.75
2023-01-31T10:09:07.550Z,22.75
2023-01-31T10:11:48.527Z,30.38
2023-01-31T10:14:21.301Z,32.03
2023-01-31T10:17:00.350Z,33.50
2023-01-31T10:19:45.379Z,30.48
2023-01-31T10:22:19.677Z,18.95
2023-01-31T10:24:59.664Z,27.20
2023-01-31T10:27:49.654Z,28.80
2023-01-31T10:30:25.303Z,35.00
2023-01-31T10:32:59.851Z,23.25
2023-01-31T10:35:43.973Z,26.48
2023-01-31T10:38:19.404Z,17.38
2023-01-31T10:40:53.207Z,21.25
2023-01-31T10:46:02.955Z,26.80
2023-01-31T10:48:32.322Z,26.35
2023-01-31T10:51:13.718Z,21.02
2023-01-31T10:54:01.586Z,27.67
2023-01-31T10:56:46.582Z,29.98
2023-01-31T10:59:38.692Z,31.45
2023-01-31T11:02:14.542Z,27.05
2023-01-31T11:04:45.217Z,23.15
2023-01-31T11:07:12.577Z,27.60
2023-01-31T11:09:46.783Z,29.80
2023-01-31T11:12:13.396Z,31.10
2023-01-31T11:14:40.281Z,31.00
2023-01-31T11:17:19.398Z,30.25
2023-01-31T11:19:50.863Z,24.02
2023-01-31T11:22:30.107Z,26.02
2023-01-31T11:25:00.644Z,34.22
2023-01-31T11:27:35.865Z,27.95
2023-01-31T11:30:04.984Z,24.58
2023-01-31T11:32:37.199Z,26.65
2023-01-31T11:35:26.666Z,28.90
2023-01-31T11:37:54.649Z,27.95
2023-01-31T11:40:33.500Z,26.95
2023-01-31T11:43:24.017Z,29.48
2023-01-31T11:46:01.038Z,26.13
2023-01-31T11:48:40.327Z,23.55
2023-01-31T11:51:11.366Z,26.38
2023-01-31T11:53:44.193Z,25.50
2023-01-31T11:56:27.811Z,25.53
2023-01-31T11:59:07.451Z,27.10
2023-01-31T12:01:36.068Z,22.02
2023-01-31T12:04:05.006Z,30.90
2023-01-31T12:06:38.222Z,29.83
2023-01-31T12:09:29.296Z,31.33
2023-01-31T12:12:07.663Z,27.55
2023-01-31T12:14:40.500Z,24.98
2023-01-31T12:17:14.130Z,24.70
2023-01-31T12:19:58.795Z,23.40
2023-01-31T12:22:36.605Z,29.08
2023-01-31T12:25:10.303Z,23.92
2023-01-31T12:30:48.839Z,24.92
2023-01-31T12:33:26.558Z,25.05
2023-01-31T12:36:15.320Z,28.38
2023-01-31T12:39:08.183Z,31.02
2023-01-31T12:42:01.433Z,32.17
2023-01-31T12:44:58.208Z,29.35
2023-01-31T12:47:36.867Z,27.02
2023-01-31T12:50:37.630Z,24.73
2023-01-31T12:53:24.812Z,26.20
2023-01-31T12:56:23.368Z,23.63
2023-01-31T12:59:16.248Z,23.83
2023-01-31T13:01:53.873Z,23.23
2023-01-31T13:04:48.149Z,25.33
2023-01-31T13:07:30.517Z,26.45
2023-01-31T13:10:01.520Z,26.10
2023-01-31T13:12:33.088Z,21.90
2023-01-31T13:15:35.101Z,23.52
2023-01-31T13:18:05.686Z,25.35
2023-01-31T13:20:40.578Z,22.05
2023-01-31T13:23:21.825Z,24.15
2023-01-31T13:25:55.884Z,21.20
2023-01-31T13:28:28.601Z,24.45
2023-01-31T13:31:02.217Z,22.58
2023-01-31T13:33:36.010Z,23.15
2023-01-31T13:38:49.334Z,24.60
2023-01-31T13:41:30.348Z,24.20
2023-01-31T13:43:58.465Z,25.17
2023-01-31T13:46:41.371Z,25.67
2023-01-31T13:49:24.900Z,26.35
2023-01-31T13:52:06.206Z,27.40
2023-01-31T13:54:37.349Z,22.17
2023-01-31T13:57:06.055Z,19.75
2023-01-31T13:59:37.826Z,19.98
2023-01-31T14:02:17.142Z,22.10
2023-01-31T14:04:47.206Z,24.63
2023-01-31T14:07:19.295Z,19.05
2023-01-31T14:09:52.189Z,20.08
2023-01-31T14:12:18.811Z,20.73
2023-01-31T14:14:56.391Z,23.08
2023-01-31T14:17:29.548Z,23.42
2023-01-31T14:20:00.602Z,24.15
2023-01-31T14:22:27.750Z,21.15
2023-01-31T14:24:56.482Z,18.65
2023-01-31T14:27:23.177Z,23.50
2023-01-31T14:29:57.685Z,20.55
2023-01-31T14:32:40.707Z,18.95
2023-01-31T14:35:19.191Z,26.38
2023-01-31T14:37:52.127Z,25.80
2023-01-31T14:40:29.839Z,22.25
2023-01-31T14:42:56.497Z,17.98
2023-01-31T14:45:55.617Z,29.58
2023-01-31T14:48:34.761Z,21.20
2023-01-31T14:51:30.548Z,17.98
2023-01-31T14:54:15.210Z,16.98
2023-01-31T14:57:11.335Z,19.50
2023-01-31T15:00:17.665Z,20.27
2023-01-31T15:03:22.443Z,18.35
2023-01-31T15:06:15.785Z,20.42
2023-01-31T15:08:45.793Z,22.63
2023-01-31T15:11:41.436Z,21.33
2023-01-31T15:14:33.726Z,22.50
2023-01-31T15:17:32.135Z,20.00
2023-01-31T15:20:14.363Z,15.07
2023-01-31T15:22:42.811Z,21.48
2023-01-31T15:25:23.446Z,17.42
2023-01-31T15:27:50.619Z,22.05
2023-01-31T15:30:24.373Z,19.20
2023-01-31T15:38:06.113Z,19.15
2023-01-31T15:40:33.440Z,20.00
2023-01-31T15:43:23.308Z,22.38
2023-01-31T15:45:52.512Z,26.27
2023-01-31T15:48:23.091Z,20.15
2023-01-31T15:50:56.719Z,31.48
2023-01-31T15:53:26.694Z,19.30
2023-01-31T15:55:58.369Z,18.63
2023-01-31T15:58:30.355Z,19.45
2023-01-31T16:01:01.865Z,24.83
2023-01-31T16:03:39.187Z,18.17
2023-01-31T16:06:36.301Z,21.02
2023-01-31T16:09:06.130Z,20.48
2023-01-31T16:11:38.569Z,22.15
2023-01-31T16:14:13.638Z,13.85
2023-01-31T16:16:46.228Z,15.63
2023-01-31T16:19:24.434Z,18.75
2023-01-31T16:21:54.274Z,22.48
2023-01-31T16:24:25.112Z,22.48
2023-01-31T16:27:06.687Z,19.77
2023-01-31T16:29:49.470Z,19.42
2023-01-31T16:32:37.901Z,14.35
2023-01-31T16:35:19.379Z,17.10
2023-01-31T16:37:46.790Z,19.05
2023-01-31T16:40:29.655Z,20.15
2023-01-31T16:43:32.704Z,23.60
2023-01-31T16:46:02.138Z,22.15
2023-01-31T16:48:33.689Z,19.95
2023-01-31T16:51:25.704Z,19.90
2023-01-31T16:54:18.366Z,23.38
2023-01-31T16:56:46.578Z,22.45
2023-01-31T16:59:35.146Z,15.38
2023-01-31T17:02:16.537Z,23.13
2023-01-31T17:04:45.655Z,19.70
2023-01-31T17:07:23.924Z,18.98
2023-01-31T17:09:55.638Z,16.98
2023-01-31T17:12:30.847Z,20.75
2023-01-31T17:15:00.873Z,18.60
2023-01-31T17:17:35.054Z,17.10
2023-01-31T17:20:06.899Z,27.55
2023-01-31T17:22:33.649Z,18.40
2023-01-31T17:25:02.743Z,17.75
2023-01-31T17:27:29.496Z,18.80
2023-01-31T17:29:56.115Z,19.00
2023-01-31T17:32:22.921Z,18.65
2023-01-31T17:34:51.751Z,19.75
2023-01-31T17:37:30.186Z,21.40
2023-01-31T17:39:58.468Z,18.88
2023-01-31T17:42:25.573Z,16.88
2023-01-31T17:44:52.323Z,15.05
2023-01-31T17:47:19.370Z,25.00
2023-01-31T17:49:46.555Z,18.00
2023-01-31T17:52:13.447Z,19.80
2023-01-31T17:54:40.147Z,18.08
2023-01-31T17:57:06.869Z,21.38
2023-01-31T17:59:34.831Z,20.95
2023-01-31T18:02:02.504Z,13.98
2023-01-31T18:04:29.350Z,15.80
2023-01-31T18:06:58.338Z,12.50
2023-01-31T18:09:26.534Z,10.65
2023-01-31T18:11:53.572Z,16.20
2023-01-31T18:14:20.346Z,14.07
2023-01-31T18:16:50.701Z,11.45
2023-01-31T18:19:17.441Z,15.82
2023-01-31T18:21:54.525Z,10.93
2023-01-31T18:24:21.610Z,8.65
2023-01-31T18:26:49.208Z,9.48
2023-01-31T18:29:19.748Z,7.55
2023-01-31T18:31:47.928Z,13.13
2023-01-31T18:34:15.211Z,9.52
2023-01-31T18:36:44.407Z,14.00
2023-01-31T18:39:13.744Z,12.68
2023-01-31T18:41:40.503Z,18.73
2023-01-31T18:44:07.487Z,19.45
2023-01-31T18:46:34.244Z,23.73
2023-01-31T18:49:01.014Z,18.67
2023-01-31T18:51:27.775Z,22.75
2023-01-31T18:53:54.449Z,21.70
2023-01-31T18:56:22.163Z,27.50
2023-01-31T18:58:49.837Z,27.35
2023-01-31T19:01:19.453Z,25.40
2023-01-31T19:03:50.035Z,28.00
2023-01-31T19:06:21.315Z,25.30
2023-01-31T19:08:52.611Z,26.65
2023-01-31T19:11:21.220Z,24.80
2023-01-31T19:13:48.287Z,23.02
2023-01-31T19:16:27.006Z,23.88
2023-01-31T19:18:54.739Z,25.00
2023-01-31T19:21:23.266Z,32.67
2023-01-31T19:23:54.189Z,22.70
2023-01-31T19:26:20.925Z,26.48
2023-01-31T19:28:50.890Z,25.10
2023-01-31T19:31:25.688Z,28.23
2023-01-31T19:33:55.767Z,27.08
2023-01-31T19:36:30.388Z,21.88
2023-01-31T19:38:59.042Z,24.77
2023-01-31T19:41:30.525Z,29.10
2023-01-31T19:43:59.683Z,22.60
2023-01-31T19:46:31.559Z,22.90
2023-01-31T19:48:59.363Z,21.17
2023-01-31T19:51:26.819Z,22.90
2023-01-31T19:54:04.029Z,22.25
2023-01-31T19:56:32.392Z,26.77
2023-01-31T19:59:00.159Z,23.73
2023-01-31T20:01:27.634Z,27.95
2023-01-31T20:03:55.640Z,25.35
2023-01-31T20:06:27.966Z,22.75
2023-01-31T20:09:00.080Z,22.95
2023-01-31T20:11:32.412Z,19.50
2023-01-31T20:14:00.490Z,21.05
2023-01-31T20:16:27.606Z,23.33
2023-01-31T20:18:57.698Z,19.05
2023-01-31T20:21:25.761Z,17.65
2023-01-31T20:23:53.605Z,28.90
2023-01-31T20:26:24.320Z,20.52
2023-01-31T20:28:54.244Z,18.73
2023-01-31T20:31:21.396Z,26.45
2023-01-31T20:33:50.236Z,23.30
2023-01-31T20:36:19.314Z,21.25
2023-01-31T20:38:46.376Z,17.85
2023-01-31T20:41:15.535Z,28.48
2023-01-31T20:43:42.775Z,20.83
2023-01-31T20:46:13.319Z,17.63
2023-01-31T20:48:45.457Z,18.80
2023-01-31T20:51:13.292Z,24.02
2023-01-31T20:53:40.703Z,22.25
2023-01-31T20:56:12.410Z,22.33
2023-01-31T20:58:41.820Z,15.65
2023-01-31T21:01:11.452Z,18.33
2023-01-31T21:03:38.684Z,30.80
2023-01-31T21:06:08.766Z,19.67
2023-01-31T21:08:36.332Z,24.17
2023-01-31T21:11:09.774Z,23.02
2023-01-31T21:13:37.636Z,19.92
2023-01-31T21:16:11.692Z,17.17
2023-01-31T21:18:40.615Z,17.98
2023-01-31T21:21:10.129Z,18.10
2023-01-31T21:23:38.450Z,20.08
2023-01-31T21:26:07.889Z,16.70
2023-01-31T21:28:35.223Z,24.08
2023-01-31T21:31:05.231Z,17.88
2023-01-31T21:33:32.186Z,18.77
2023-01-31T21:36:07.488Z,22.00
2023-01-31T21:38:34.385Z,15.77
2023-01-31T21:41:19.959Z,16.40
2023-01-31T21:43:46.675Z,15.98
2023-01-31T21:46:15.001Z,13.85
2023-01-31T21:48:42.327Z,18.73
2023-01-31T21:51:16.236Z,14.30
2023-01-31T21:53:43.513Z,14.88
2023-01-31T21:56:22.103Z,18.73
2023-01-31T21:58:49.206Z,15.73
2023-01-31T22:01:26.869Z,18.50
2023-01-31T22:03:55.013Z,18.23
2023-01-31T22:06:25.776Z,19.58
2023-01-31T22:08:59.470Z,20.20
2023-01-31T22:11:26.606Z,17.30
2023-01-31T22:13:55.973Z,20.60
2023-01-31T22:16:25.740Z,23.05
2023-01-31T22:18:52.975Z,18.65
2023-01-31T22:21:25.478Z,17.08
2023-01-31T22:23:57.282Z,22.15
2023-01-31T22:26:30.653Z,18.23
2023-01-31T22:28:59.707Z,17.05
2023-01-31T22:31:26.958Z,21.48
2023-01-31T22:33:54.030Z,17.15
2023-01-31T22:36:21.755Z,16.70
2023-01-31T22:38:48.468Z,20.05
2023-01-31T22:41:18.955Z,16.90
2023-01-31T22:43:48.630Z,17.00
2023-01-31T22:46:18.377Z,13.77
2023-01-31T22:48:50.653Z,15.40
2023-01-31T22:51:23.066Z,16.20
2023-01-31T22:53:50.901Z,16.30
2023-01-31T22:56:20.064Z,16.00
2023-01-31T22:58:47.508Z,13.88
2023-01-31T23:01:19.654Z,14.13
2023-01-31T23:03:47.061Z,17.38
2023-01-31T23:06:16.375Z,12.90
2023-01-31T23:08:43.568Z,13.07
2023-01-31T23:11:14.409Z,18.48
2023-01-31T23:13:41.878Z,15.50
2023-01-31T23:16:10.594Z,11.63
2023-01-31T23:18:37.354Z,15.45
2023-01-31T23:21:14.680Z,15.20
2023-01-31T23:23:42.836Z,14.32
2023-01-31T23:26:10.535Z,14.68
2023-01-31T23:28:37.631Z,12.27
2023-01-31T23:31:04.602Z,12.93
2023-01-31T23:33:33.873Z,12.07
2023-01-31T23:36:00.779Z,13.70
2023-01-31T23:38:27.409Z,12.45
2023-01-31T23:40:54.900Z,14.00
2023-01-31T23:43:22.394Z,13.40
2023-01-31T23:45:49.313Z,14.57
2023-01-31T23:48:16.722Z,14.68
2023-01-31T23:50:43.722Z,13.65
2023-01-31T23:53:10.495Z,16.50
2023-01-31T23:55:39.404Z,15.68
2023-01-31T23:58:06.091Z,11.73
